Time;durP1;ratioP1;P1;durP2;ratioP2;P2;SDS_P1;SDS_P2;PMS_P1;PMS_P2;Temp;Humidity;BMP_temperature;BMP_pressure;BME280_temperature;BME280_humidity;BME280_pressure;Samples;Min_cycle;Max_cycle;Signal;HPM_P1;HPM_P2
2024/03/18 00:01:42;;;;;;;8.02;4.95;;;;;;;;;;5043217;28;20025;-85
2024/03/18 00:04:27;;;;;;;7.93;4.13;;;;;;;;;;5045357;28;20052;-84
2024/03/18 00:07:12;;;;;;;9.77;4.43;;;;;;;;;;5047858;28;20528;-83
2024/03/18 00:09:57;;;;;;;4.97;3.85;;;;;;;;;;5042822;28;20457;-85
2024/03/18 00:12:43;;;;;;;8.50;5.13;;;;;;;;;;5047632;28;20024;-85
2024/03/18 00:15:29;;;;;;;6.03;3.88;;;;;;;;;;5026689;28;20025;-85
2024/03/18 00:18:14;;;;;;;9.65;5.13;;;;;;;;;;5037968;28;20037;-85
2024/03/18 00:20:59;;;;;;;8.95;4.55;;;;;;;;;;5047383;28;20048;-87
2024/03/18 00:23:45;;;;;;;11.75;5.43;;;;;;;;;;5042159;28;20030;-86
2024/03/18 00:26:30;;;;;;;8.50;5.07;;;;;;;;;;5039304;28;20021;-85
2024/03/18 00:29:15;;;;;;;8.15;5.60;;;;;;;;;;5046898;28;20052;-86
2024/03/18 00:32:01;;;;;;;10.50;5.50;;;;;;;;;;5042653;28;20494;-84
2024/03/18 00:34:46;;;;;;;13.95;7.10;;;;;;;;;;5047443;28;20380;-86
2024/03/18 00:37:31;;;;;;;10.65;6.55;;;;;;;;;;5058355;28;20036;-86
2024/03/18 00:40:16;;;;;;;14.73;7.72;;;;;;;;;;5060537;28;20024;-87
2024/03/18 00:43:03;;;;;;;12.20;6.88;;;;;;;;;;5056694;28;20024;-86
2024/03/18 00:45:50;;;;;;;11.63;6.22;;;;;;;;;;5060064;28;20035;-85
2024/03/18 00:48:35;;;;;;;12.68;6.72;;;;;;;;;;5057107;28;20016;-86
2024/03/18 00:51:21;;;;;;;11.80;6.28;;;;;;;;;;5062653;28;20028;-85
2024/03/18 00:54:07;;;;;;;10.80;5.80;;;;;;;;;;5059984;28;20653;-85
2024/03/18 00:56:52;;;;;;;13.63;6.85;;;;;;;;;;5062801;28;20048;-85
2024/03/18 00:59:37;;;;;;;10.13;5.82;;;;;;;;;;5058169;28;20025;-85
2024/03/18 01:02:22;;;;;;;10.27;5.78;;;;;;;;;;5056549;28;20044;-86
2024/03/18 01:05:09;;;;;;;6.75;4.65;;;;;;;;;;5055850;28;20047;-86
2024/03/18 01:07:54;;;;;;;10.05;5.68;;;;;;;;;;5067455;28;20085;-84
2024/03/18 01:10:40;;;;;;;7.68;4.75;;;;;;;;;;5058211;28;20044;-84
2024/03/18 01:13:32;;;;;;;6.97;4.97;;;;;;;;;;5054694;28;20032;-85
2024/03/18 01:16:24;;;;;;;8.82;5.65;;;;;;;;;;5057894;28;20024;-85
2024/03/18 01:19:10;;;;;;;8.07;5.38;;;;;;;;;;5064632;28;20103;-83
2024/03/18 01:21:55;;;;;;;10.10;4.78;;;;;;;;;;5064479;28;20111;-84
2024/03/18 01:24:41;;;;;;;7.63;4.22;;;;;;;;;;5065114;28;20042;-84
2024/03/18 01:27:26;;;;;;;6.95;3.97;;;;;;;;;;5064034;28;20085;-84
2024/03/18 01:30:12;;;;;;;7.80;4.43;;;;;;;;;;5061876;28;20540;-85
2024/03/18 01:32:57;;;;;;;5.10;3.63;;;;;;;;;;5065031;28;20048;-84
2024/03/18 01:35:42;;;;;;;11.52;6.03;;;;;;;;;;5065617;28;20048;-84
2024/03/18 01:38:28;;;;;;;9.43;4.43;;;;;;;;;;5063510;28;20024;-84
2024/03/18 01:41:13;;;;;;;12.00;5.55;;;;;;;;;;5062909;28;20037;-84
2024/03/18 01:43:58;;;;;;;10.10;4.72;;;;;;;;;;5051012;28;20074;-84
2024/03/18 01:46:44;;;;;;;8.30;5.55;;;;;;;;;;5057433;28;20031;-84
2024/03/18 01:49:29;;;;;;;8.15;4.75;;;;;;;;;;5053760;28;20073;-84
2024/03/18 01:52:15;;;;;;;7.30;4.00;;;;;;;;;;5066708;28;20170;-85
2024/03/18 01:55:01;;;;;;;7.20;4.07;;;;;;;;;;5063325;28;20046;-84
2024/03/18 01:57:47;;;;;;;8.80;4.53;;;;;;;;;;5067725;28;20085;-85
2024/03/18 02:00:35;;;;;;;14.60;4.32;;;;;;;;;;5070554;28;20086;-86
2024/03/18 02:03:23;;;;;;;5.97;3.70;;;;;;;;;;5066583;28;20494;-85
2024/03/18 02:06:08;;;;;;;7.70;4.20;;;;;;;;;;5069129;28;20482;-86
2024/03/18 02:08:53;;;;;;;8.57;4.05;;;;;;;;;;5064248;28;20509;-86
2024/03/18 02:11:39;;;;;;;10.15;4.45;;;;;;;;;;5067354;28;20044;-86
2024/03/18 02:14:24;;;;;;;5.65;4.10;;;;;;;;;;5069158;28;20077;-85
2024/03/18 02:17:09;;;;;;;7.82;4.10;;;;;;;;;;5075314;28;20035;-84
2024/03/18 02:19:55;;;;;;;6.50;4.15;;;;;;;;;;5067965;28;20029;-85
2024/03/18 02:22:40;;;;;;;5.68;4.30;;;;;;;;;;5064309;28;20125;-84
2024/03/18 02:25:26;;;;;;;7.28;4.40;;;;;;;;;;5058140;28;20052;-83
2024/03/18 02:28:17;;;;;;;6.22;4.43;;;;;;;;;;5060118;28;20024;-85
2024/03/18 02:31:03;;;;;;;7.57;4.50;;;;;;;;;;5065281;28;20023;-84
2024/03/18 02:33:48;;;;;;;8.18;4.15;;;;;;;;;;5068124;28;20604;-85
2024/03/18 02:36:33;;;;;;;11.05;4.93;;;;;;;;;;5057213;28;20033;-85
2024/03/18 02:39:22;;;;;;;8.25;4.13;;;;;;;;;;5059746;28;20425;-84
2024/03/18 02:42:07;;;;;;;7.73;4.40;;;;;;;;;;5065103;28;20032;-83
2024/03/18 02:44:56;;;;;;;7.13;4.93;;;;;;;;;;5066692;28;20431;-84
2024/03/18 02:47:41;;;;;;;10.07;5.60;;;;;;;;;;5074120;28;20038;-83
2024/03/18 02:50:27;;;;;;;9.25;5.10;;;;;;;;;;5066624;28;20024;-86
2024/03/18 02:53:15;;;;;;;11.55;5.35;;;;;;;;;;5084700;28;20034;-85
2024/03/18 02:56:00;;;;;;;10.23;5.65;;;;;;;;;;5086315;28;20032;-85
2024/03/18 02:58:45;;;;;;;9.40;5.25;;;;;;;;;;5068260;28;20391;-86
2024/03/18 03:01:31;;;;;;;8.88;5.47;;;;;;;;;;5083529;28;20062;-84
2024/03/18 03:04:16;;;;;;;8.60;5.43;;;;;;;;;;5065486;28;20024;-85
2024/03/18 03:07:01;;;;;;;10.40;5.15;;;;;;;;;;5073464;28;20141;-83
2024/03/18 03:09:55;;;;;;;10.95;5.28;;;;;;;;;;5076715;28;20032;-83
2024/03/18 03:12:50;;;;;;;8.60;4.05;;;;;;;;;;5441322;22;20026;-88
2024/03/18 03:15:35;;;;;;;5.70;3.55;;;;;;;;;;5095416;27;20195;-84
2024/03/18 03:18:20;;;;;;;9.82;4.72;;;;;;;;;;5087222;28;20464;-84
2024/03/18 03:21:06;;;;;;;6.38;3.92;;;;;;;;;;5093591;27;20100;-84
2024/03/18 03:23:51;;;;;;;6.90;3.88;;;;;;;;;;5096209;27;20024;-84
2024/03/18 03:26:36;;;;;;;5.55;3.70;;;;;;;;;;5095918;27;20027;-84
2024/03/18 03:29:22;;;;;;;10.52;4.50;;;;;;;;;;5086869;28;20145;-84
2024/03/18 03:32:10;;;;;;;7.70;4.32;;;;;;;;;;5091273;28;20085;-85
2024/03/18 03:34:55;;;;;;;6.18;4.18;;;;;;;;;;5095053;27;20093;-85
2024/03/18 03:37:40;;;;;;;7.80;4.10;;;;;;;;;;5095420;27;20058;-86
2024/03/18 03:40:26;;;;;;;7.65;5.38;;;;;;;;;;5091303;27;20024;-86
2024/03/18 03:43:11;;;;;;;8.45;5.45;;;;;;;;;;5089205;28;20047;-84
2024/03/18 03:45:59;;;;;;;9.77;5.05;;;;;;;;;;5093365;28;20449;-84
2024/03/18 03:48:44;;;;;;;11.15;4.82;;;;;;;;;;5090537;28;20027;-83
2024/03/18 03:51:29;;;;;;;7.65;4.68;;;;;;;;;;5089997;27;20019;-83
2024/03/18 03:54:15;;;;;;;10.73;5.43;;;;;;;;;;5090533;27;20040;-83
2024/03/18 03:57:00;;;;;;;10.73;4.63;;;;;;;;;;5097799;27;20394;-84
2024/03/18 03:59:45;;;;;;;8.63;5.15;;;;;;;;;;5088271;27;20031;-84
2024/03/18 04:02:30;;;;;;;9.07;4.75;;;;;;;;;;5088580;27;20028;-85
2024/03/18 04:05:15;;;;;;;10.30;4.93;;;;;;;;;;5088141;28;20020;-84
2024/03/18 04:08:01;;;;;;;6.05;4.32;;;;;;;;;;5082657;28;20030;-84
2024/03/18 04:10:46;;;;;;;9.35;4.72;;;;;;;;;;5105416;27;20027;-85
2024/03/18 04:13:31;;;;;;;8.65;5.40;;;;;;;;;;5100844;27;20378;-84
2024/03/18 04:16:19;;;;;;;10.48;5.75;;;;;;;;;;5098452;28;20436;-85
2024/03/18 04:19:04;;;;;;;10.02;5.75;;;;;;;;;;5081152;28;20020;-85
2024/03/18 04:21:49;;;;;;;9.18;5.45;;;;;;;;;;5082396;28;20319;-85
2024/03/18 04:24:35;;;;;;;9.65;5.78;;;;;;;;;;5086682;28;20162;-85
2024/03/18 04:27:20;;;;;;;10.70;6.45;;;;;;;;;;5089207;28;20032;-86
2024/03/18 04:30:16;;;;;;;10.82;5.80;;;;;;;;;;5083820;28;20370;-85
2024/03/18 04:33:01;;;;;;;10.73;6.00;;;;;;;;;;5080358;28;20092;-84
2024/03/18 04:35:46;;;;;;;9.07;5.55;;;;;;;;;;5072009;28;20055;-85
2024/03/18 04:38:32;;;;;;;9.88;5.78;;;;;;;;;;5081644;28;20081;-85
2024/03/18 04:41:17;;;;;;;7.15;4.95;;;;;;;;;;5088050;28;20039;-85
2024/03/18 04:44:03;;;;;;;8.68;4.95;;;;;;;;;;5083404;28;20040;-85
2024/03/18 04:46:48;;;;;;;11.70;5.22;;;;;;;;;;5078837;28;20077;-85
2024/03/18 04:49:34;;;;;;;9.32;5.50;;;;;;;;;;5065144;28;20392;-86
2024/03/18 04:52:20;;;;;;;9.00;5.65;;;;;;;;;;5062741;28;20020;-85
2024/03/18 04:55:05;;;;;;;9.85;5.45;;;;;;;;;;5061018;28;20028;-85
2024/03/18 04:58:00;;;;;;;9.25;5.40;;;;;;;;;;5064281;28;20060;-86
2024/03/18 05:00:45;;;;;;;10.02;5.85;;;;;;;;;;5072876;28;20356;-84
2024/03/18 05:03:30;;;;;;;8.48;5.38;;;;;;;;;;5066674;28;20462;-84
2024/03/18 05:06:16;;;;;;;11.25;6.25;;;;;;;;;;5071129;28;20248;-84
2024/03/18 05:09:03;;;;;;;9.80;5.32;;;;;;;;;;5070035;28;20039;-86
2024/03/18 05:11:48;;;;;;;8.77;6.18;;;;;;;;;;5080104;28;20032;-85
2024/03/18 05:14:33;;;;;;;9.65;5.40;;;;;;;;;;5087305;28;20062;-86
2024/03/18 05:17:17;;;;;;;10.68;6.03;;;;;;;;;;5109331;28;20043;-86
2024/03/18 05:20:04;;;;;;;8.20;5.35;;;;;;;;;;5094588;28;20080;-87
2024/03/18 05:22:50;;;;;;;14.38;6.70;;;;;;;;;;5099895;28;20016;-84
2024/03/18 05:25:38;;;;;;;10.60;5.35;;;;;;;;;;5095567;28;20059;-84
2024/03/18 05:28:24;;;;;;;8.68;5.78;;;;;;;;;;5064575;28;21517;-84
2024/03/18 05:31:09;;;;;;;10.63;6.07;;;;;;;;;;5067413;28;20082;-85
2024/03/18 05:33:54;;;;;;;11.82;5.75;;;;;;;;;;5076400;28;20043;-83
2024/03/18 05:36:40;;;;;;;13.00;5.80;;;;;;;;;;5060272;28;20436;-84
2024/03/18 05:39:25;;;;;;;9.25;5.75;;;;;;;;;;5079412;28;20552;-83
2024/03/18 05:42:10;;;;;;;13.20;6.82;;;;;;;;;;5080886;28;20032;-83
2024/03/18 05:44:56;;;;;;;11.80;6.28;;;;;;;;;;5066086;28;20497;-83
2024/03/18 05:47:41;;;;;;;10.20;6.07;;;;;;;;;;5059551;28;20143;-87
2024/03/18 05:50:27;;;;;;;9.40;5.63;;;;;;;;;;5080391;28;20017;-88
2024/03/18 05:53:14;;;;;;;10.43;5.88;;;;;;;;;;5061174;28;20430;-89
2024/03/18 05:55:59;;;;;;;8.45;4.82;;;;;;;;;;5070428;28;20028;-84
2024/03/18 05:58:45;;;;;;;10.35;5.88;;;;;;;;;;5064009;28;20062;-84
2024/03/18 06:01:30;;;;;;;8.57;5.30;;;;;;;;;;5072658;28;20024;-83
2024/03/18 06:04:16;;;;;;;10.90;5.13;;;;;;;;;;5074158;28;20084;-82
2024/03/18 06:07:03;;;;;;;8.23;5.20;;;;;;;;;;5077852;28;20032;-81
2024/03/18 06:09:48;;;;;;;8.90;5.22;;;;;;;;;;5062560;28;20475;-83
2024/03/18 06:12:33;;;;;;;9.60;5.32;;;;;;;;;;5058049;28;20041;-82
2024/03/18 06:15:18;;;;;;;9.63;5.35;;;;;;;;;;5052010;28;20131;-85
2024/03/18 06:18:04;;;;;;;9.20;5.03;;;;;;;;;;5061348;28;20750;-80
2024/03/18 06:20:54;;;;;;;8.07;5.15;;;;;;;;;;5083229;28;20109;-81
2024/03/18 06:23:39;;;;;;;8.63;5.47;;;;;;;;;;5082182;28;20475;-81
2024/03/18 06:29:57;;;;;;;14.50;6.85;;;;;;;;;;5065559;28;20036;-81
2024/03/18 06:32:43;;;;;;;12.93;5.65;;;;;;;;;;5068661;28;20182;-80
2024/03/18 06:35:28;;;;;;;9.05;4.88;;;;;;;;;;5070849;28;20374;-83
2024/03/18 06:38:14;;;;;;;8.77;4.63;;;;;;;;;;5074807;28;20028;-83
2024/03/18 06:40:59;;;;;;;9.02;4.95;;;;;;;;;;5068430;28;20406;-83
2024/03/18 06:43:45;;;;;;;10.70;5.43;;;;;;;;;;5074231;28;20055;-82
2024/03/18 06:46:31;;;;;;;8.75;5.43;;;;;;;;;;5069755;28;20059;-82
2024/03/18 06:49:16;;;;;;;7.85;5.18;;;;;;;;;;5088233;28;20030;-82
2024/03/18 06:52:01;;;;;;;10.10;5.57;;;;;;;;;;5070888;28;20038;-81
2024/03/18 06:54:47;;;;;;;10.70;5.35;;;;;;;;;;5069794;28;20020;-82
2024/03/18 06:57:32;;;;;;;10.30;5.55;;;;;;;;;;5077915;28;20062;-81
2024/03/18 07:00:23;;;;;;;8.38;4.90;;;;;;;;;;5070463;28;20035;-81
2024/03/18 07:03:08;;;;;;;10.35;5.40;;;;;;;;;;5067518;28;20042;-81
2024/03/18 07:05:54;;;;;;;10.50;7.10;;;;;;;;;;5063863;28;20016;-81
2024/03/18 07:08:40;;;;;;;9.85;5.43;;;;;;;;;;5058795;28;20017;-81
2024/03/18 07:11:25;;;;;;;11.38;5.25;;;;;;;;;;5076943;28;20036;-81
2024/03/18 07:14:11;;;;;;;9.45;5.65;;;;;;;;;;5069194;28;20059;-81
2024/03/18 07:16:56;;;;;;;9.50;5.65;;;;;;;;;;5064776;28;20039;-81
2024/03/18 07:19:41;;;;;;;9.95;5.55;;;;;;;;;;5056064;28;20029;-81
2024/03/18 07:22:26;;;;;;;10.88;5.50;;;;;;;;;;5059299;28;20025;-81
2024/03/18 07:25:16;;;;;;;10.95;6.43;;;;;;;;;;5066027;28;20063;-81
2024/03/18 07:28:02;;;;;;;9.43;6.32;;;;;;;;;;5067669;28;20028;-83
2024/03/18 07:30:47;;;;;;;10.82;5.78;;;;;;;;;;5070427;28;20016;-82
2024/03/18 07:33:32;;;;;;;10.52;5.55;;;;;;;;;;5087417;28;20028;-83
2024/03/18 07:36:18;;;;;;;9.40;5.70;;;;;;;;;;5063325;28;20032;-83
2024/03/18 07:39:05;;;;;;;11.77;6.85;;;;;;;;;;5073082;28;20076;-83
2024/03/18 07:41:50;;;;;;;10.48;6.25;;;;;;;;;;5072720;28;20031;-83
2024/03/18 07:44:35;;;;;;;11.48;7.38;;;;;;;;;;5073673;28;20111;-83
2024/03/18 07:47:20;;;;;;;13.00;6.25;;;;;;;;;;5077775;28;20020;-82
2024/03/18 07:50:06;;;;;;;10.02;6.50;;;;;;;;;;5056863;28;20032;-83
2024/03/18 07:52:51;;;;;;;10.73;6.43;;;;;;;;;;5061882;28;20028;-82
2024/03/18 07:55:36;;;;;;;10.30;6.35;;;;;;;;;;5059774;28;20036;-82
2024/03/18 07:58:21;;;;;;;14.00;6.82;;;;;;;;;;5057468;28;20644;-82
2024/03/18 08:01:08;;;;;;;9.82;5.80;;;;;;;;;;5065527;28;20032;-82
2024/03/18 08:03:53;;;;;;;12.35;6.72;;;;;;;;;;5062471;28;20028;-80
2024/03/18 08:06:41;;;;;;;11.57;6.50;;;;;;;;;;5061840;28;20111;-81
2024/03/18 08:09:26;;;;;;;11.77;6.65;;;;;;;;;;5077922;28;20051;-81
2024/03/18 08:12:11;;;;;;;9.07;5.30;;;;;;;;;;5062331;28;20421;-81
2024/03/18 08:14:57;;;;;;;13.15;6.50;;;;;;;;;;5064004;28;20048;-81
2024/03/18 08:17:42;;;;;;;11.13;5.78;;;;;;;;;;5058853;28;20063;-82
2024/03/18 08:20:28;;;;;;;12.32;5.25;;;;;;;;;;5060523;28;20029;-82
2024/03/18 08:23:13;;;;;;;9.93;6.10;;;;;;;;;;5054227;28;20086;-81
2024/03/18 08:25:58;;;;;;;8.90;5.45;;;;;;;;;;5059914;28;20549;-81
2024/03/18 08:28:44;;;;;;;10.98;6.07;;;;;;;;;;5059188;28;20063;-81
2024/03/18 08:31:29;;;;;;;11.52;6.28;;;;;;;;;;5073572;28;20020;-82
2024/03/18 08:34:15;;;;;;;8.93;5.50;;;;;;;;;;5057258;28;20020;-81
2024/03/18 08:37:00;;;;;;;9.75;5.93;;;;;;;;;;5057235;28;20020;-81
2024/03/18 08:39:46;;;;;;;12.30;4.93;;;;;;;;;;5059278;28;20017;-81
2024/03/18 08:42:31;;;;;;;10.63;6.00;;;;;;;;;;5057849;28;20020;-82
2024/03/18 08:45:17;;;;;;;10.32;5.28;;;;;;;;;;5060562;28;20025;-83
2024/03/18 08:48:02;;;;;;;8.75;5.63;;;;;;;;;;5058358;28;20012;-81
2024/03/18 08:50:47;;;;;;;13.35;6.47;;;;;;;;;;5062312;28;20059;-82
2024/03/18 08:53:33;;;;;;;9.75;5.80;;;;;;;;;;5057110;28;20020;-81
2024/03/18 08:56:18;;;;;;;11.80;6.05;;;;;;;;;;5060822;28;20036;-83
2024/03/18 08:59:03;;;;;;;7.22;4.25;;;;;;;;;;5060928;28;20491;-82
2024/03/18 09:01:48;;;;;;;12.90;5.10;;;;;;;;;;5057938;28;20051;-82
2024/03/18 09:04:34;;;;;;;7.43;5.10;;;;;;;;;;5064257;28;20028;-82
2024/03/18 09:07:19;;;;;;;10.20;4.70;;;;;;;;;;5068150;28;20110;-83
2024/03/18 09:10:09;;;;;;;10.98;6.28;;;;;;;;;;5060306;28;20027;-82
2024/03/18 09:12:55;;;;;;;11.50;5.40;;;;;;;;;;5060518;28;20223;-82
2024/03/18 09:15:40;;;;;;;11.13;5.35;;;;;;;;;;5059416;28;20067;-82
2024/03/18 09:18:25;;;;;;;9.98;4.97;;;;;;;;;;5059564;28;20032;-82
2024/03/18 09:21:11;;;;;;;12.10;5.45;;;;;;;;;;5061640;28;20514;-82
2024/03/18 09:23:56;;;;;;;7.20;4.70;;;;;;;;;;5073662;28;20103;-82
2024/03/18 09:26:41;;;;;;;10.23;5.47;;;;;;;;;;5062655;28;20040;-82
2024/03/18 09:29:26;;;;;;;9.30;4.65;;;;;;;;;;5063060;28;20024;-82
2024/03/18 09:32:11;;;;;;;10.40;5.63;;;;;;;;;;5065705;28;20441;-81
2024/03/18 09:34:57;;;;;;;8.90;5.10;;;;;;;;;;5065577;28;20034;-81
2024/03/18 09:37:42;;;;;;;10.18;5.45;;;;;;;;;;5060549;28;20039;-81
2024/03/18 09:40:28;;;;;;;8.95;5.22;;;;;;;;;;5052732;28;20029;-82
2024/03/18 09:43:13;;;;;;;10.35;5.13;;;;;;;;;;5056082;28;20045;-81
2024/03/18 09:45:59;;;;;;;8.80;5.15;;;;;;;;;;5058898;28;20055;-81
2024/03/18 09:48:45;;;;;;;13.20;5.70;;;;;;;;;;5058603;28;20032;-81
2024/03/18 09:51:31;;;;;;;8.73;4.55;;;;;;;;;;5057350;28;20017;-82
2024/03/18 09:54:16;;;;;;;7.82;5.03;;;;;;;;;;5053207;28;20024;-81
2024/03/18 09:57:04;;;;;;;11.43;3.95;;;;;;;;;;5063699;28;20437;-83
2024/03/18 09:59:50;;;;;;;7.45;4.10;;;;;;;;;;5073504;28;20111;-82
2024/03/18 10:02:36;;;;;;;8.25;4.78;;;;;;;;;;5058573;28;20464;-82
2024/03/18 10:05:21;;;;;;;9.38;4.75;;;;;;;;;;5060884;28;20103;-82
2024/03/18 10:08:08;;;;;;;9.57;4.90;;;;;;;;;;5064825;28;20702;-82
2024/03/18 10:10:53;;;;;;;7.72;4.30;;;;;;;;;;5069357;28;20032;-82
2024/03/18 10:13:38;;;;;;;9.23;4.65;;;;;;;;;;5061394;28;20052;-82
2024/03/18 10:16:24;;;;;;;8.18;4.07;;;;;;;;;;5066496;28;20020;-81
2024/03/18 10:19:13;;;;;;;11.77;4.15;;;;;;;;;;5066238;28;20036;-82
2024/03/18 10:21:59;;;;;;;13.20;4.47;;;;;;;;;;5073033;28;20031;-82
2024/03/18 10:24:44;;;;;;;10.85;4.20;;;;;;;;;;5058561;28;20032;-82
2024/03/18 10:27:30;;;;;;;7.90;4.40;;;;;;;;;;5065606;28;20021;-81
2024/03/18 10:30:16;;;;;;;10.38;4.22;;;;;;;;;;5079691;28;20059;-82
2024/03/18 10:33:03;;;;;;;7.63;4.22;;;;;;;;;;5061762;28;20104;-81
2024/03/18 10:35:49;;;;;;;8.07;4.15;;;;;;;;;;5064173;28;20024;-81
2024/03/18 10:38:37;;;;;;;10.73;5.82;;;;;;;;;;5070718;28;20016;-82
2024/03/18 10:41:23;;;;;;;12.75;5.53;;;;;;;;;;5061618;28;20124;-82
2024/03/18 10:44:19;;;;;;;9.35;3.72;;;;;;;;;;5079595;28;20165;-81
2024/03/18 10:47:05;;;;;;;8.18;4.15;;;;;;;;;;5058026;28;20024;-81
2024/03/18 10:49:51;;;;;;;8.90;4.20;;;;;;;;;;5058897;28;20074;-81
2024/03/18 10:52:37;;;;;;;10.13;4.25;;;;;;;;;;5068344;28;20032;-81
2024/03/18 10:55:23;;;;;;;7.13;3.47;;;;;;;;;;5058962;28;20073;-81
2024/03/18 10:58:08;;;;;;;7.15;3.60;;;;;;;;;;5078863;28;20063;-81
2024/03/18 11:00:54;;;;;;;8.95;4.35;;;;;;;;;;5065662;28;20032;-80
2024/03/18 11:03:45;;;;;;;6.20;3.63;;;;;;;;;;5058544;28;20354;-80
2024/03/18 11:06:30;;;;;;;8.30;3.78;;;;;;;;;;5058733;28;20374;-81
2024/03/18 11:09:16;;;;;;;8.57;3.67;;;;;;;;;;5064579;28;20020;-80
2024/03/18 11:12:02;;;;;;;8.13;4.07;;;;;;;;;;5079623;28;20028;-79
2024/03/18 11:15:02;;;;;;;8.55;4.07;;;;;;;;;;5058945;28;20044;-80
2024/03/18 11:17:48;;;;;;;8.18;4.18;;;;;;;;;;5060359;28;20036;-82
2024/03/18 11:20:46;;;;;;;6.57;3.33;;;;;;;;;;5061326;28;20020;-82
2024/03/18 11:23:32;;;;;;;7.13;3.50;;;;;;;;;;5075553;28;20085;-79
2024/03/18 11:26:22;;;;;;;5.07;3.20;;;;;;;;;;5076191;28;20555;-81
2024/03/18 11:29:08;;;;;;;10.38;3.50;;;;;;;;;;5064728;28;20592;-82
2024/03/18 11:31:53;;;;;;;6.57;3.35;;;;;;;;;;5069073;28;20059;-82
2024/03/18 11:34:41;;;;;;;5.22;2.85;;;;;;;;;;5075827;28;20024;-82
2024/03/18 11:37:26;;;;;;;5.50;3.58;;;;;;;;;;5071845;28;20131;-83
2024/03/18 11:40:14;;;;;;;6.40;3.22;;;;;;;;;;5078654;28;20491;-82
2024/03/18 11:43:03;;;;;;;7.53;3.33;;;;;;;;;;5063864;28;20028;-80
2024/03/18 11:45:49;;;;;;;5.97;3.10;;;;;;;;;;5061465;28;20020;-81
2024/03/18 11:48:34;;;;;;;6.10;3.38;;;;;;;;;;5077673;28;20074;-81
2024/03/18 11:51:19;;;;;;;7.32;3.00;;;;;;;;;;5061879;28;20024;-81
2024/03/18 11:54:08;;;;;;;4.85;3.08;;;;;;;;;;5064859;28;20024;-80
2024/03/18 11:56:54;;;;;;;4.93;2.72;;;;;;;;;;5059529;28;20038;-81
2024/03/18 11:59:40;;;;;;;7.68;2.67;;;;;;;;;;5062241;28;20081;-81
2024/03/18 12:02:25;;;;;;;6.28;3.03;;;;;;;;;;5063262;28;20051;-81
2024/03/18 12:05:10;;;;;;;10.35;3.40;;;;;;;;;;5064313;28;20028;-81
2024/03/18 12:07:56;;;;;;;7.78;4.63;;;;;;;;;;5066152;28;20430;-81
2024/03/18 12:10:41;;;;;;;12.50;4.47;;;;;;;;;;5057954;28;20039;-81
2024/03/18 12:13:27;;;;;;;6.60;3.78;;;;;;;;;;5046038;28;20044;-80
2024/03/18 12:16:13;;;;;;;5.38;3.55;;;;;;;;;;5062355;28;20024;-80
2024/03/18 12:19:05;;;;;;;9.20;4.65;;;;;;;;;;5061070;28;20078;-80
2024/03/18 12:21:51;;;;;;;8.75;4.50;;;;;;;;;;5065908;28;20600;-81
2024/03/18 12:30:54;;;;;;;5.95;4.03;;;;;;;;;;5064976;28;20050;-82
2024/03/18 12:33:40;;;;;;;4.75;2.80;;;;;;;;;;5062021;28;20383;-82
2024/03/18 12:36:25;;;;;;;3.83;2.60;;;;;;;;;;5077489;28;20035;-81
2024/03/18 12:39:12;;;;;;;4.13;2.90;;;;;;;;;;5075800;28;20067;-80
2024/03/18 12:42:02;;;;;;;7.68;2.60;;;;;;;;;;5056465;28;20060;-83
2024/03/18 12:44:47;;;;;;;5.03;2.42;;;;;;;;;;5074807;28;20054;-82
2024/03/18 12:47:32;;;;;;;3.90;2.55;;;;;;;;;;5074554;28;20024;-83
2024/03/18 12:50:18;;;;;;;4.03;2.83;;;;;;;;;;5062025;28;20497;-82
2024/03/18 12:53:08;;;;;;;5.45;3.33;;;;;;;;;;5058979;28;20103;-83
2024/03/18 12:55:53;;;;;;;2.83;1.98;;;;;;;;;;5060722;28;20118;-82
2024/03/18 12:58:38;;;;;;;3.80;2.00;;;;;;;;;;5072736;28;20104;-82
2024/03/18 13:01:24;;;;;;;4.43;2.17;;;;;;;;;;5053675;28;20031;-82
2024/03/18 13:04:09;;;;;;;3.95;1.80;;;;;;;;;;5056759;28;20079;-82
2024/03/18 13:06:57;;;;;;;5.93;2.00;;;;;;;;;;5062442;28;20035;-82
2024/03/18 13:09:43;;;;;;;1.92;1.30;;;;;;;;;;5075022;28;20028;-82
2024/03/18 13:12:29;;;;;;;2.10;1.30;;;;;;;;;;5060280;28;20382;-81
2024/03/18 13:15:14;;;;;;;2.28;1.40;;;;;;;;;;5055860;28;20071;-82
2024/03/18 13:18:00;;;;;;;4.30;2.13;;;;;;;;;;5073138;28;20493;-84
2024/03/18 13:20:45;;;;;;;4.28;1.50;;;;;;;;;;5060290;28;20036;-82
2024/03/18 13:23:32;;;;;;;4.28;1.60;;;;;;;;;;5051561;28;20021;-83
2024/03/18 13:26:17;;;;;;;3.03;1.92;;;;;;;;;;5065558;28;20037;-82
2024/03/18 13:29:03;;;;;;;3.70;1.70;;;;;;;;;;5058126;28;20039;-82
2024/03/18 13:31:51;;;;;;;2.10;1.70;;;;;;;;;;5082436;28;20036;-82
2024/03/18 13:34:37;;;;;;;3.30;1.70;;;;;;;;;;5086876;28;20020;-81
2024/03/18 13:37:24;;;;;;;6.28;2.08;;;;;;;;;;5079568;28;20055;-82
2024/03/18 13:40:09;;;;;;;4.63;1.88;;;;;;;;;;5065932;28;20040;-82
2024/03/18 13:42:54;;;;;;;5.47;1.90;;;;;;;;;;5043641;28;20027;-82
2024/03/18 13:45:39;;;;;;;3.60;1.88;;;;;;;;;;5047116;28;20115;-83
2024/03/18 13:48:25;;;;;;;3.22;1.63;;;;;;;;;;5058636;28;20017;-82
2024/03/18 13:51:12;;;;;;;5.22;2.00;;;;;;;;;;5060803;28;20024;-84
2024/03/18 13:53:58;;;;;;;9.02;3.03;;;;;;;;;;5063999;28;20039;-83
2024/03/18 13:56:43;;;;;;;5.47;2.85;;;;;;;;;;5062394;28;20075;-83
2024/03/18 13:59:35;;;;;;;6.03;2.53;;;;;;;;;;5042284;28;20108;-84
2024/03/18 14:02:20;;;;;;;4.82;2.08;;;;;;;;;;5046702;28;20032;-83
2024/03/18 14:05:05;;;;;;;5.82;2.85;;;;;;;;;;5048453;28;20029;-83
2024/03/18 14:07:50;;;;;;;4.65;2.97;;;;;;;;;;5062938;28;20477;-84
2024/03/18 14:10:36;;;;;;;4.35;2.67;;;;;;;;;;5047384;28;20101;-83
2024/03/18 14:13:21;;;;;;;8.05;3.00;;;;;;;;;;5051885;28;20412;-84
2024/03/18 14:16:09;;;;;;;4.28;2.80;;;;;;;;;;5071192;28;20114;-83
2024/03/18 14:18:55;;;;;;;5.40;2.90;;;;;;;;;;5073268;28;20024;-84
2024/03/18 14:21:40;;;;;;;7.35;3.30;;;;;;;;;;5065331;28;20112;-84
2024/03/18 14:24:26;;;;;;;4.72;3.30;;;;;;;;;;5070739;28;20526;-84
2024/03/18 14:27:12;;;;;;;8.43;2.60;;;;;;;;;;5071839;28;20050;-83
2024/03/18 14:29:57;;;;;;;4.75;3.03;;;;;;;;;;5068961;28;20055;-83
2024/03/18 14:32:42;;;;;;;6.60;3.55;;;;;;;;;;5065986;28;20025;-83
2024/03/18 14:35:28;;;;;;;9.27;3.90;;;;;;;;;;5052350;28;20077;-83
2024/03/18 14:38:14;;;;;;;6.28;3.45;;;;;;;;;;5061741;28;20030;-83
2024/03/18 14:41:03;;;;;;;7.95;4.30;;;;;;;;;;5060937;28;20028;-84
2024/03/18 14:43:48;;;;;;;7.55;4.22;;;;;;;;;;5068644;28;20024;-84
2024/03/18 14:46:33;;;;;;;7.28;3.55;;;;;;;;;;5065774;28;20094;-83
2024/03/18 14:49:19;;;;;;;9.77;4.88;;;;;;;;;;5063712;28;20021;-82
2024/03/18 14:52:04;;;;;;;11.00;4.35;;;;;;;;;;5066478;28;20020;-81
2024/03/18 14:54:50;;;;;;;6.95;4.20;;;;;;;;;;5078251;28;20085;-82
2024/03/18 14:57:35;;;;;;;9.50;4.68;;;;;;;;;;5072750;28;20035;-82
2024/03/18 15:00:20;;;;;;;6.85;4.40;;;;;;;;;;5073601;28;20020;-81
2024/03/18 15:03:06;;;;;;;9.70;4.47;;;;;;;;;;5065284;28;20063;-80
2024/03/18 15:05:51;;;;;;;6.78;4.43;;;;;;;;;;5076226;28;20441;-82
2024/03/18 15:08:36;;;;;;;8.02;4.65;;;;;;;;;;5064319;28;20547;-82
2024/03/18 15:11:23;;;;;;;13.10;6.18;;;;;;;;;;5069676;28;20035;-81
2024/03/18 15:14:08;;;;;;;12.13;5.75;;;;;;;;;;5067351;28;20040;-82
2024/03/18 15:16:53;;;;;;;9.13;5.30;;;;;;;;;;5062611;28;20094;-82
2024/03/18 15:19:38;;;;;;;11.52;6.25;;;;;;;;;;5063668;28;20048;-82
2024/03/18 15:22:32;;;;;;;11.93;6.18;;;;;;;;;;5064288;28;20021;-83
2024/03/18 15:28:23;;;;;;;9.25;6.03;;;;;;;;;;5065377;28;20081;-85
2024/03/18 15:31:08;;;;;;;11.77;6.10;;;;;;;;;;5065378;28;20371;-82
2024/03/18 15:33:53;;;;;;;13.80;7.95;;;;;;;;;;5082089;28;20028;-82
2024/03/18 15:36:39;;;;;;;12.88;7.05;;;;;;;;;;5063783;28;20024;-81
2024/03/18 15:39:25;;;;;;;12.93;6.70;;;;;;;;;;5064410;28;20044;-81
2024/03/18 15:42:10;;;;;;;10.82;6.85;;;;;;;;;;5065200;28;20025;-81
2024/03/18 15:44:56;;;;;;;15.95;8.35;;;;;;;;;;5059618;28;20021;-81
2024/03/18 15:47:42;;;;;;;10.23;6.68;;;;;;;;;;5078336;28;20024;-80
2024/03/18 15:50:27;;;;;;;15.40;7.60;;;;;;;;;;5074950;28;20035;-80
2024/03/18 15:53:13;;;;;;;12.07;7.05;;;;;;;;;;5077861;28;20311;-80
2024/03/18 15:56:00;;;;;;;11.20;7.05;;;;;;;;;;5064035;28;20402;-81
2024/03/18 15:58:47;;;;;;;14.90;7.20;;;;;;;;;;5064764;28;20036;-81
2024/03/18 16:01:32;;;;;;;13.13;7.28;;;;;;;;;;5062105;28;20050;-81
2024/03/18 16:04:17;;;;;;;14.43;7.45;;;;;;;;;;5064055;28;20039;-82
2024/03/18 16:07:04;;;;;;;11.90;6.97;;;;;;;;;;5064793;28;20020;-81
2024/03/18 16:09:49;;;;;;;13.95;8.02;;;;;;;;;;5049763;28;20039;-81
2024/03/18 16:12:35;;;;;;;11.82;7.15;;;;;;;;;;5062261;28;20035;-83
2024/03/18 16:15:20;;;;;;;12.10;7.20;;;;;;;;;;5074605;28;20449;-83
2024/03/18 16:18:06;;;;;;;15.18;7.78;;;;;;;;;;5066794;28;20067;-83
2024/03/18 16:20:51;;;;;;;12.68;7.38;;;;;;;;;;5067727;28;20740;-84
2024/03/18 16:23:39;;;;;;;10.73;6.20;;;;;;;;;;5061402;28;20069;-83
2024/03/18 16:26:25;;;;;;;14.90;7.40;;;;;;;;;;5066051;28;20118;-84
2024/03/18 16:29:10;;;;;;;14.55;7.40;;;;;;;;;;5068531;28;20026;-83
2024/03/18 16:31:55;;;;;;;12.38;7.25;;;;;;;;;;5080680;28;20024;-83
2024/03/18 16:34:40;;;;;;;13.82;7.53;;;;;;;;;;5076558;28;20039;-83
2024/03/18 16:37:26;;;;;;;13.57;7.75;;;;;;;;;;5080112;28;20038;-83
2024/03/18 16:40:12;;;;;;;11.43;7.32;;;;;;;;;;5064031;28;20073;-84
2024/03/18 16:42:57;;;;;;;13.10;7.25;;;;;;;;;;5065382;28;20031;-83